Terminal Aerodrome Forecast
Issued by NWS Riverton, WY

Home | Current Version | Previous Version | Text Only | Print | Product List | Glossary On
Versions: 1 2 3 4 5 6 7 8 9 10 11 12 13
660
FTUS45 KRIW 262320
TAFRIW
TAF
KRIW 262320Z 2700/2724 VRB03KT P6SM SKC
     FM270200 25006KT P6SM SKC
     FM271500 08005KT P6SM SKC=

USA.gov is the U.S. government's official web portal to all federal, state and local government web resources and services.